sensor_id;sensor_type;location;lat;lon;timestamp;P1;durP1;ratioP1;P2;durP2;ratioP2
50683;SDS011;36654;45.042;38.994;2023-10-31T00:01:34;38.20;;;17.95;;
50683;SDS011;36654;45.042;38.994;2023-10-31T00:04:00;35.13;;;19.35;;
50683;SDS011;36654;45.042;38.994;2023-10-31T00:06:25;57.47;;;35.78;;
50683;SDS011;36654;45.042;38.994;2023-10-31T00:08:51;34.85;;;19.67;;
50683;SDS011;36654;45.042;38.994;2023-10-31T00:11:17;43.90;;;26.77;;
50683;SDS011;36654;45.042;38.994;2023-10-31T00:13:42;63.75;;;44.40;;
50683;SDS011;36654;45.042;38.994;2023-10-31T00:16:08;41.28;;;28.45;;
50683;SDS011;36654;45.042;38.994;2023-10-31T00:18:34;55.05;;;37.47;;
50683;SDS011;36654;45.042;38.994;2023-10-31T00:20:59;56.33;;;42.25;;
50683;SDS011;36654;45.042;38.994;2023-10-31T00:23:25;43.63;;;33.10;;
50683;SDS011;36654;45.042;38.994;2023-10-31T00:25:51;56.35;;;39.35;;
50683;SDS011;36654;45.042;38.994;2023-10-31T00:28:16;32.80;;;21.05;;
50683;SDS011;36654;45.042;38.994;2023-10-31T00:30:42;27.45;;;17.73;;
50683;SDS011;36654;45.042;38.994;2023-10-31T00:33:07;31.52;;;22.13;;
50683;SDS011;36654;45.042;38.994;2023-10-31T00:35:33;34.72;;;19.52;;
50683;SDS011;36654;45.042;38.994;2023-10-31T00:37:58;28.98;;;17.58;;
50683;SDS011;36654;45.042;38.994;2023-10-31T00:40:24;29.17;;;14.77;;
50683;SDS011;36654;45.042;38.994;2023-10-31T00:42:49;25.08;;;15.60;;
50683;SDS011;36654;45.042;38.994;2023-10-31T00:45:15;22.13;;;12.82;;
50683;SDS011;36654;45.042;38.994;2023-10-31T00:47:41;28.55;;;15.98;;
50683;SDS011;36654;45.042;38.994;2023-10-31T00:50:06;22.77;;;13.40;;
50683;SDS011;36654;45.042;38.994;2023-10-31T00:52:33;24.45;;;13.23;;
50683;SDS011;36654;45.042;38.994;2023-10-31T00:54:58;25.75;;;12.80;;
50683;SDS011;36654;45.042;38.994;2023-10-31T00:57:24;22.17;;;12.27;;
50683;SDS011;36654;45.042;38.994;2023-10-31T00:59:50;20.52;;;11.80;;
50683;SDS011;36654;45.042;38.994;2023-10-31T01:02:15;19.85;;;11.70;;
50683;SDS011;36654;45.042;38.994;2023-10-31T01:04:41;24.23;;;11.77;;
50683;SDS011;36654;45.042;38.994;2023-10-31T01:07:07;24.67;;;12.35;;
50683;SDS011;36654;45.042;38.994;2023-10-31T01:09:36;25.42;;;12.93;;
50683;SDS011;36654;45.042;38.994;2023-10-31T01:12:02;19.10;;;11.75;;
50683;SDS011;36654;45.042;38.994;2023-10-31T01:14:28;20.98;;;12.40;;
50683;SDS011;36654;45.042;38.994;2023-10-31T01:16:53;22.70;;;13.07;;
50683;SDS011;36654;45.042;38.994;2023-10-31T01:19:19;24.58;;;12.63;;
50683;SDS011;36654;45.042;38.994;2023-10-31T01:21:44;28.80;;;12.90;;
50683;SDS011;36654;45.042;38.994;2023-10-31T01:24:10;28.70;;;13.32;;
50683;SDS011;36654;45.042;38.994;2023-10-31T01:26:35;26.55;;;13.13;;
50683;SDS011;36654;45.042;38.994;2023-10-31T01:29:01;26.35;;;13.38;;
50683;SDS011;36654;45.042;38.994;2023-10-31T01:31:27;29.25;;;13.07;;
50683;SDS011;36654;45.042;38.994;2023-10-31T01:33:53;25.52;;;13.82;;
50683;SDS011;36654;45.042;38.994;2023-10-31T01:36:18;22.17;;;12.65;;
50683;SDS011;36654;45.042;38.994;2023-10-31T01:38:44;25.55;;;13.30;;
50683;SDS011;36654;45.042;38.994;2023-10-31T01:41:11;25.67;;;13.25;;
50683;SDS011;36654;45.042;38.994;2023-10-31T01:43:37;26.48;;;12.48;;
50683;SDS011;36654;45.042;38.994;2023-10-31T01:46:03;23.23;;;12.68;;
50683;SDS011;36654;45.042;38.994;2023-10-31T01:48:31;23.70;;;12.65;;
50683;SDS011;36654;45.042;38.994;2023-10-31T01:50:58;26.02;;;13.13;;
50683;SDS011;36654;45.042;38.994;2023-10-31T01:53:25;26.90;;;13.93;;
50683;SDS011;36654;45.042;38.994;2023-10-31T01:55:52;27.13;;;12.70;;
50683;SDS011;36654;45.042;38.994;2023-10-31T01:58:20;26.30;;;13.20;;
50683;SDS011;36654;45.042;38.994;2023-10-31T02:03:15;18.38;;;11.95;;
50683;SDS011;36654;45.042;38.994;2023-10-31T02:05:41;23.77;;;12.93;;
50683;SDS011;36654;45.042;38.994;2023-10-31T02:08:07;24.65;;;12.93;;
50683;SDS011;36654;45.042;38.994;2023-10-31T02:10:35;25.60;;;12.90;;
50683;SDS011;36654;45.042;38.994;2023-10-31T02:13:11;21.95;;;12.93;;
50683;SDS011;36654;45.042;38.994;2023-10-31T02:15:40;30.48;;;13.90;;
50683;SDS011;36654;45.042;38.994;2023-10-31T02:18:05;32.40;;;13.55;;
50683;SDS011;36654;45.042;38.994;2023-10-31T02:20:32;28.45;;;13.05;;
50683;SDS011;36654;45.042;38.994;2023-10-31T02:22:58;25.58;;;13.07;;
50683;SDS011;36654;45.042;38.994;2023-10-31T02:25:23;25.00;;;12.93;;
50683;SDS011;36654;45.042;38.994;2023-10-31T02:27:49;20.23;;;12.07;;
50683;SDS011;36654;45.042;38.994;2023-10-31T02:30:15;22.75;;;13.13;;
50683;SDS011;36654;45.042;38.994;2023-10-31T02:32:41;24.48;;;12.60;;
50683;SDS011;36654;45.042;38.994;2023-10-31T02:35:07;25.63;;;12.20;;
50683;SDS011;36654;45.042;38.994;2023-10-31T02:37:33;21.17;;;12.98;;
50683;SDS011;36654;45.042;38.994;2023-10-31T02:39:59;22.33;;;12.35;;
50683;SDS011;36654;45.042;38.994;2023-10-31T02:42:25;31.08;;;12.73;;
50683;SDS011;36654;45.042;38.994;2023-10-31T02:44:51;28.27;;;12.63;;
50683;SDS011;36654;45.042;38.994;2023-10-31T02:47:17;24.50;;;12.75;;
50683;SDS011;36654;45.042;38.994;2023-10-31T02:49:43;22.98;;;11.80;;
50683;SDS011;36654;45.042;38.994;2023-10-31T02:52:09;20.58;;;12.70;;
50683;SDS011;36654;45.042;38.994;2023-10-31T02:54:34;22.15;;;11.32;;
50683;SDS011;36654;45.042;38.994;2023-10-31T02:57:00;22.52;;;11.65;;
50683;SDS011;36654;45.042;38.994;2023-10-31T02:59:25;27.08;;;12.55;;
50683;SDS011;36654;45.042;38.994;2023-10-31T03:01:52;24.70;;;11.60;;
50683;SDS011;36654;45.042;38.994;2023-10-31T03:04:18;21.75;;;11.25;;
50683;SDS011;36654;45.042;38.994;2023-10-31T03:06:43;24.08;;;11.65;;
50683;SDS011;36654;45.042;38.994;2023-10-31T03:09:09;24.80;;;10.95;;
50683;SDS011;36654;45.042;38.994;2023-10-31T03:11:35;25.10;;;12.65;;
50683;SDS011;36654;45.042;38.994;2023-10-31T03:14:00;22.77;;;12.80;;
50683;SDS011;36654;45.042;38.994;2023-10-31T03:16:26;23.65;;;11.90;;
50683;SDS011;36654;45.042;38.994;2023-10-31T03:18:52;24.83;;;12.30;;
50683;SDS011;36654;45.042;38.994;2023-10-31T03:21:18;25.02;;;12.07;;
50683;SDS011;36654;45.042;38.994;2023-10-31T03:23:47;24.75;;;13.32;;
50683;SDS011;36654;45.042;38.994;2023-10-31T03:26:14;19.63;;;12.35;;
50683;SDS011;36654;45.042;38.994;2023-10-31T03:28:40;23.17;;;11.32;;
50683;SDS011;36654;45.042;38.994;2023-10-31T03:31:06;21.00;;;11.43;;
50683;SDS011;36654;45.042;38.994;2023-10-31T03:33:31;25.10;;;12.57;;
50683;SDS011;36654;45.042;38.994;2023-10-31T03:35:57;24.92;;;11.48;;
50683;SDS011;36654;45.042;38.994;2023-10-31T03:38:22;24.77;;;10.75;;
50683;SDS011;36654;45.042;38.994;2023-10-31T03:40:48;24.17;;;12.13;;
50683;SDS011;36654;45.042;38.994;2023-10-31T03:43:14;23.88;;;11.93;;
50683;SDS011;36654;45.042;38.994;2023-10-31T03:45:40;22.08;;;11.32;;
50683;SDS011;36654;45.042;38.994;2023-10-31T03:48:06;24.88;;;12.30;;
50683;SDS011;36654;45.042;38.994;2023-10-31T03:50:31;25.40;;;12.32;;
50683;SDS011;36654;45.042;38.994;2023-10-31T03:52:57;21.45;;;12.05;;
50683;SDS011;36654;45.042;38.994;2023-10-31T03:55:23;28.00;;;12.80;;
50683;SDS011;36654;45.042;38.994;2023-10-31T03:57:48;29.88;;;13.13;;
50683;SDS011;36654;45.042;38.994;2023-10-31T04:00:14;24.35;;;11.45;;
50683;SDS011;36654;45.042;38.994;2023-10-31T04:02:40;22.38;;;10.48;;
50683;SDS011;36654;45.042;38.994;2023-10-31T04:05:06;22.63;;;10.85;;
50683;SDS011;36654;45.042;38.994;2023-10-31T04:07:32;17.45;;;9.95;;
50683;SDS011;36654;45.042;38.994;2023-10-31T04:09:57;32.15;;;11.73;;
50683;SDS011;36654;45.042;38.994;2023-10-31T04:12:23;21.15;;;11.10;;
50683;SDS011;36654;45.042;38.994;2023-10-31T04:14:49;24.90;;;10.93;;
50683;SDS011;36654;45.042;38.994;2023-10-31T04:17:14;22.48;;;10.75;;
50683;SDS011;36654;45.042;38.994;2023-10-31T04:19:41;15.60;;;9.90;;
50683;SDS011;36654;45.042;38.994;2023-10-31T04:22:07;16.20;;;9.52;;
50683;SDS011;36654;45.042;38.994;2023-10-31T04:24:32;17.83;;;9.90;;
50683;SDS011;36654;45.042;38.994;2023-10-31T04:26:58;21.40;;;11.13;;
50683;SDS011;36654;45.042;38.994;2023-10-31T04:29:23;21.35;;;10.20;;
50683;SDS011;36654;45.042;38.994;2023-10-31T04:31:49;21.35;;;11.27;;
50683;SDS011;36654;45.042;38.994;2023-10-31T04:34:14;21.17;;;10.27;;
50683;SDS011;36654;45.042;38.994;2023-10-31T04:36:40;18.60;;;9.77;;
50683;SDS011;36654;45.042;38.994;2023-10-31T04:39:06;18.35;;;10.00;;
50683;SDS011;36654;45.042;38.994;2023-10-31T04:41:31;25.83;;;10.80;;
50683;SDS011;36654;45.042;38.994;2023-10-31T04:43:57;22.08;;;10.45;;
50683;SDS011;36654;45.042;38.994;2023-10-31T04:46:24;19.42;;;10.40;;
50683;SDS011;36654;45.042;38.994;2023-10-31T04:48:51;19.60;;;9.85;;
50683;SDS011;36654;45.042;38.994;2023-10-31T04:51:17;19.70;;;9.82;;
50683;SDS011;36654;45.042;38.994;2023-10-31T04:53:43;21.90;;;10.10;;
50683;SDS011;36654;45.042;38.994;2023-10-31T04:56:12;22.83;;;10.35;;
50683;SDS011;36654;45.042;38.994;2023-10-31T04:58:39;22.75;;;10.70;;
50683;SDS011;36654;45.042;38.994;2023-10-31T05:01:08;24.00;;;12.70;;
50683;SDS011;36654;45.042;38.994;2023-10-31T05:03:36;23.88;;;10.88;;
50683;SDS011;36654;45.042;38.994;2023-10-31T05:06:02;20.45;;;11.23;;
50683;SDS011;36654;45.042;38.994;2023-10-31T05:08:29;26.50;;;12.48;;
50683;SDS011;36654;45.042;38.994;2023-10-31T05:10:55;27.05;;;12.30;;
50683;SDS011;36654;45.042;38.994;2023-10-31T05:13:23;25.98;;;11.52;;
50683;SDS011;36654;45.042;38.994;2023-10-31T05:15:49;26.67;;;12.88;;
50683;SDS011;36654;45.042;38.994;2023-10-31T05:18:15;29.55;;;13.18;;
50683;SDS011;36654;45.042;38.994;2023-10-31T05:20:41;30.70;;;12.18;;
50683;SDS011;36654;45.042;38.994;2023-10-31T05:23:06;29.52;;;13.32;;
50683;SDS011;36654;45.042;38.994;2023-10-31T05:25:32;26.73;;;13.48;;
50683;SDS011;36654;45.042;38.994;2023-10-31T05:27:58;27.00;;;14.05;;
50683;SDS011;36654;45.042;38.994;2023-10-31T05:30:24;34.38;;;16.08;;
50683;SDS011;36654;45.042;38.994;2023-10-31T05:32:50;30.85;;;15.68;;
50683;SDS011;36654;45.042;38.994;2023-10-31T05:35:16;34.90;;;19.05;;
50683;SDS011;36654;45.042;38.994;2023-10-31T05:37:42;43.67;;;18.42;;
50683;SDS011;36654;45.042;38.994;2023-10-31T05:40:08;39.08;;;18.90;;
50683;SDS011;36654;45.042;38.994;2023-10-31T05:42:34;32.78;;;19.10;;
50683;SDS011;36654;45.042;38.994;2023-10-31T05:45:00;35.38;;;18.13;;
50683;SDS011;36654;45.042;38.994;2023-10-31T05:47:25;41.05;;;18.88;;
50683;SDS011;36654;45.042;38.994;2023-10-31T05:49:51;35.45;;;19.30;;
50683;SDS011;36654;45.042;38.994;2023-10-31T05:52:17;37.45;;;18.83;;
50683;SDS011;36654;45.042;38.994;2023-10-31T05:54:42;37.88;;;19.23;;
50683;SDS011;36654;45.042;38.994;2023-10-31T05:57:08;40.25;;;19.50;;
50683;SDS011;36654;45.042;38.994;2023-10-31T05:59:33;35.50;;;21.38;;
50683;SDS011;36654;45.042;38.994;2023-10-31T06:01:59;40.17;;;20.73;;
50683;SDS011;36654;45.042;38.994;2023-10-31T06:04:24;39.85;;;20.17;;
50683;SDS011;36654;45.042;38.994;2023-10-31T06:06:50;40.28;;;20.60;;
50683;SDS011;36654;45.042;38.994;2023-10-31T06:09:16;39.28;;;20.90;;
50683;SDS011;36654;45.042;38.994;2023-10-31T06:11:42;40.30;;;19.95;;
50683;SDS011;36654;45.042;38.994;2023-10-31T06:14:09;41.38;;;21.15;;
50683;SDS011;36654;45.042;38.994;2023-10-31T06:16:42;42.38;;;21.20;;
50683;SDS011;36654;45.042;38.994;2023-10-31T06:19:09;44.30;;;22.70;;
50683;SDS011;36654;45.042;38.994;2023-10-31T06:21:35;47.42;;;23.08;;
50683;SDS011;36654;45.042;38.994;2023-10-31T06:24:01;45.47;;;22.17;;
50683;SDS011;36654;45.042;38.994;2023-10-31T06:26:29;46.97;;;22.65;;
50683;SDS011;36654;45.042;38.994;2023-10-31T06:28:55;43.08;;;24.48;;
50683;SDS011;36654;45.042;38.994;2023-10-31T06:31:21;46.33;;;22.33;;
50683;SDS011;36654;45.042;38.994;2023-10-31T06:33:47;45.60;;;23.23;;
50683;SDS011;36654;45.042;38.994;2023-10-31T06:36:12;45.63;;;22.30;;
50683;SDS011;36654;45.042;38.994;2023-10-31T06:38:38;39.33;;;23.58;;
50683;SDS011;36654;45.042;38.994;2023-10-31T06:41:03;48.95;;;22.02;;
50683;SDS011;36654;45.042;38.994;2023-10-31T06:43:29;40.95;;;22.92;;
50683;SDS011;36654;45.042;38.994;2023-10-31T06:45:55;41.33;;;24.48;;
50683;SDS011;36654;45.042;38.994;2023-10-31T06:48:22;49.60;;;23.90;;
50683;SDS011;36654;45.042;38.994;2023-10-31T06:50:47;47.78;;;25.90;;
50683;SDS011;36654;45.042;38.994;2023-10-31T06:53:14;52.13;;;25.55;;
50683;SDS011;36654;45.042;38.994;2023-10-31T06:55:39;47.50;;;26.23;;
50683;SDS011;36654;45.042;38.994;2023-10-31T06:58:05;55.78;;;26.13;;
50683;SDS011;36654;45.042;38.994;2023-10-31T07:00:30;55.53;;;25.63;;
50683;SDS011;36654;45.042;38.994;2023-10-31T07:02:56;45.80;;;25.58;;
50683;SDS011;36654;45.042;38.994;2023-10-31T07:05:23;45.10;;;27.23;;
50683;SDS011;36654;45.042;38.994;2023-10-31T07:07:50;52.72;;;26.30;;
50683;SDS011;36654;45.042;38.994;2023-10-31T07:10:16;50.55;;;27.30;;
50683;SDS011;36654;45.042;38.994;2023-10-31T07:12:41;51.45;;;28.55;;
50683;SDS011;36654;45.042;38.994;2023-10-31T07:15:07;54.35;;;28.10;;
50683;SDS011;36654;45.042;38.994;2023-10-31T07:17:33;50.80;;;28.52;;
50683;SDS011;36654;45.042;38.994;2023-10-31T07:19:59;56.10;;;29.70;;
50683;SDS011;36654;45.042;38.994;2023-10-31T07:22:25;58.72;;;29.98;;
50683;SDS011;36654;45.042;38.994;2023-10-31T07:24:51;56.15;;;29.58;;
50683;SDS011;36654;45.042;38.994;2023-10-31T07:27:17;54.17;;;29.65;;
50683;SDS011;36654;45.042;38.994;2023-10-31T07:29:43;59.08;;;32.35;;
50683;SDS011;36654;45.042;38.994;2023-10-31T07:32:09;56.42;;;30.60;;
50683;SDS011;36654;45.042;38.994;2023-10-31T07:34:35;54.70;;;30.88;;
50683;SDS011;36654;45.042;38.994;2023-10-31T07:37:00;58.95;;;30.50;;
50683;SDS011;36654;45.042;38.994;2023-10-31T07:39:26;57.90;;;31.75;;
50683;SDS011;36654;45.042;38.994;2023-10-31T07:41:52;56.35;;;30.42;;
50683;SDS011;36654;45.042;38.994;2023-10-31T07:44:17;59.00;;;30.08;;
50683;SDS011;36654;45.042;38.994;2023-10-31T07:46:43;52.08;;;29.02;;
50683;SDS011;36654;45.042;38.994;2023-10-31T07:49:08;61.88;;;29.27;;
50683;SDS011;36654;45.042;38.994;2023-10-31T07:51:34;60.05;;;28.83;;
50683;SDS011;36654;45.042;38.994;2023-10-31T07:54:00;54.08;;;26.50;;
50683;SDS011;36654;45.042;38.994;2023-10-31T07:56:26;51.90;;;28.02;;
50683;SDS011;36654;45.042;38.994;2023-10-31T07:58:52;51.70;;;28.10;;
50683;SDS011;36654;45.042;38.994;2023-10-31T08:01:18;55.10;;;25.92;;
50683;SDS011;36654;45.042;38.994;2023-10-31T08:03:45;50.20;;;27.30;;
50683;SDS011;36654;45.042;38.994;2023-10-31T08:06:12;53.90;;;28.40;;
50683;SDS011;36654;45.042;38.994;2023-10-31T08:08:38;49.75;;;25.45;;
50683;SDS011;36654;45.042;38.994;2023-10-31T08:11:03;47.58;;;26.30;;
50683;SDS011;36654;45.042;38.994;2023-10-31T08:13:32;55.08;;;28.35;;
50683;SDS011;36654;45.042;38.994;2023-10-31T08:15:58;55.28;;;31.00;;
50683;SDS011;36654;45.042;38.994;2023-10-31T08:18:23;51.97;;;28.50;;
50683;SDS011;36654;45.042;38.994;2023-10-31T08:20:49;61.42;;;29.83;;
50683;SDS011;36654;45.042;38.994;2023-10-31T08:23:16;56.33;;;29.30;;
50683;SDS011;36654;45.042;38.994;2023-10-31T08:25:42;57.13;;;29.25;;
50683;SDS011;36654;45.042;38.994;2023-10-31T08:28:08;62.00;;;30.52;;
50683;SDS011;36654;45.042;38.994;2023-10-31T08:30:34;57.95;;;29.20;;
50683;SDS011;36654;45.042;38.994;2023-10-31T08:33:00;58.55;;;31.17;;
50683;SDS011;36654;45.042;38.994;2023-10-31T08:35:26;64.50;;;32.85;;
50683;SDS011;36654;45.042;38.994;2023-10-31T08:37:52;66.30;;;30.10;;
50683;SDS011;36654;45.042;38.994;2023-10-31T08:40:17;55.20;;;29.13;;
50683;SDS011;36654;45.042;38.994;2023-10-31T08:42:43;64.03;;;30.83;;
50683;SDS011;36654;45.042;38.994;2023-10-31T08:45:09;57.70;;;28.67;;
50683;SDS011;36654;45.042;38.994;2023-10-31T08:47:34;57.20;;;29.50;;
50683;SDS011;36654;45.042;38.994;2023-10-31T08:50:00;55.08;;;26.33;;
50683;SDS011;36654;45.042;38.994;2023-10-31T08:52:26;57.72;;;26.25;;
50683;SDS011;36654;45.042;38.994;2023-10-31T08:54:51;54.08;;;25.38;;
50683;SDS011;36654;45.042;38.994;2023-10-31T08:57:17;55.40;;;24.17;;
50683;SDS011;36654;45.042;38.994;2023-10-31T08:59:43;45.53;;;23.30;;
50683;SDS011;36654;45.042;38.994;2023-10-31T09:02:08;45.17;;;23.27;;
50683;SDS011;36654;45.042;38.994;2023-10-31T09:04:34;46.95;;;22.73;;
50683;SDS011;36654;45.042;38.994;2023-10-31T09:07:00;49.47;;;22.90;;
50683;SDS011;36654;45.042;38.994;2023-10-31T09:09:26;52.28;;;23.90;;
50683;SDS011;36654;45.042;38.994;2023-10-31T09:11:51;48.15;;;21.23;;
50683;SDS011;36654;45.042;38.994;2023-10-31T09:14:17;40.03;;;22.52;;
50683;SDS011;36654;45.042;38.994;2023-10-31T09:16:43;42.47;;;22.23;;
50683;SDS011;36654;45.042;38.994;2023-10-31T09:19:08;44.83;;;20.95;;
50683;SDS011;36654;45.042;38.994;2023-10-31T09:21:34;40.67;;;19.20;;
50683;SDS011;36654;45.042;38.994;2023-10-31T09:24:00;37.40;;;19.75;;
50683;SDS011;36654;45.042;38.994;2023-10-31T09:26:26;38.30;;;20.08;;
50683;SDS011;36654;45.042;38.994;2023-10-31T09:28:51;38.83;;;19.35;;
50683;SDS011;36654;45.042;38.994;2023-10-31T09:31:17;40.67;;;18.58;;
50683;SDS011;36654;45.042;38.994;2023-10-31T09:33:43;41.72;;;20.25;;
50683;SDS011;36654;45.042;38.994;2023-10-31T09:36:10;48.28;;;19.45;;
50683;SDS011;36654;45.042;38.994;2023-10-31T09:38:36;38.22;;;17.77;;
50683;SDS011;36654;45.042;38.994;2023-10-31T09:41:02;40.53;;;18.33;;
50683;SDS011;36654;45.042;38.994;2023-10-31T09:43:28;44.33;;;18.13;;
50683;SDS011;36654;45.042;38.994;2023-10-31T09:45:54;38.78;;;17.33;;
50683;SDS011;36654;45.042;38.994;2023-10-31T09:48:22;41.55;;;19.63;;
50683;SDS011;36654;45.042;38.994;2023-10-31T09:50:47;48.00;;;19.23;;
50683;SDS011;36654;45.042;38.994;2023-10-31T09:53:14;35.28;;;17.90;;
50683;SDS011;36654;45.042;38.994;2023-10-31T09:55:43;38.97;;;20.20;;
50683;SDS011;36654;45.042;38.994;2023-10-31T09:58:10;35.80;;;18.40;;
50683;SDS011;36654;45.042;38.994;2023-10-31T10:00:36;39.22;;;19.75;;
50683;SDS011;36654;45.042;38.994;2023-10-31T10:03:11;42.85;;;20.35;;
50683;SDS011;36654;45.042;38.994;2023-10-31T10:05:37;43.70;;;21.75;;
50683;SDS011;36654;45.042;38.994;2023-10-31T10:08:04;39.38;;;21.13;;
50683;SDS011;36654;45.042;38.994;2023-10-31T10:10:30;37.15;;;20.25;;
50683;SDS011;36654;45.042;38.994;2023-10-31T10:12:56;38.85;;;20.95;;
50683;SDS011;36654;45.042;38.994;2023-10-31T10:15:23;43.42;;;20.58;;
50683;SDS011;36654;45.042;38.994;2023-10-31T10:17:50;41.60;;;19.33;;
50683;SDS011;36654;45.042;38.994;2023-10-31T10:20:19;40.58;;;18.55;;
50683;SDS011;36654;45.042;38.994;2023-10-31T10:22:45;34.92;;;18.83;;
50683;SDS011;36654;45.042;38.994;2023-10-31T10:25:17;40.92;;;19.10;;
50683;SDS011;36654;45.042;38.994;2023-10-31T10:27:46;33.83;;;17.88;;
50683;SDS011;36654;45.042;38.994;2023-10-31T10:30:13;36.15;;;17.77;;
50683;SDS011;36654;45.042;38.994;2023-10-31T10:32:40;37.78;;;18.05;;
50683;SDS011;36654;45.042;38.994;2023-10-31T10:35:06;42.28;;;19.33;;
50683;SDS011;36654;45.042;38.994;2023-10-31T10:37:32;37.53;;;18.02;;
50683;SDS011;36654;45.042;38.994;2023-10-31T10:40:05;35.67;;;16.77;;
50683;SDS011;36654;45.042;38.994;2023-10-31T10:42:32;41.78;;;17.33;;
50683;SDS011;36654;45.042;38.994;2023-10-31T10:45:03;24.60;;;14.25;;
50683;SDS011;36654;45.042;38.994;2023-10-31T10:47:33;23.55;;;13.18;;
50683;SDS011;36654;45.042;38.994;2023-10-31T10:50:00;30.50;;;13.15;;
50683;SDS011;36654;45.042;38.994;2023-10-31T10:55:03;19.65;;;9.95;;
50683;SDS011;36654;45.042;38.994;2023-10-31T10:57:37;21.95;;;11.13;;
50683;SDS011;36654;45.042;38.994;2023-10-31T11:00:07;19.05;;;10.52;;
50683;SDS011;36654;45.042;38.994;2023-10-31T11:02:35;21.88;;;10.18;;
50683;SDS011;36654;45.042;38.994;2023-10-31T11:05:02;21.33;;;9.27;;
50683;SDS011;36654;45.042;38.994;2023-10-31T11:07:34;17.35;;;9.20;;
50683;SDS011;36654;45.042;38.994;2023-10-31T11:10:02;21.98;;;11.57;;
50683;SDS011;36654;45.042;38.994;2023-10-31T11:12:30;24.23;;;12.02;;
50683;SDS011;36654;45.042;38.994;2023-10-31T11:14:57;25.20;;;11.57;;
50683;SDS011;36654;45.042;38.994;2023-10-31T11:17:27;20.98;;;10.00;;
50683;SDS011;36654;45.042;38.994;2023-10-31T11:19:55;20.33;;;9.68;;
50683;SDS011;36654;45.042;38.994;2023-10-31T11:22:22;19.25;;;9.20;;
50683;SDS011;36654;45.042;38.994;2023-10-31T11:24:50;20.60;;;8.57;;
50683;SDS011;36654;45.042;38.994;2023-10-31T11:27:16;18.58;;;7.80;;
50683;SDS011;36654;45.042;38.994;2023-10-31T11:29:43;22.60;;;7.80;;
50683;SDS011;36654;45.042;38.994;2023-10-31T11:32:09;15.07;;;7.88;;
50683;SDS011;36654;45.042;38.994;2023-10-31T11:34:39;16.33;;;7.38;;
50683;SDS011;36654;45.042;38.994;2023-10-31T11:42:43;15.80;;;7.85;;
50683;SDS011;36654;45.042;38.994;2023-10-31T11:45:12;16.33;;;7.70;;
50683;SDS011;36654;45.042;38.994;2023-10-31T11:47:47;18.33;;;7.57;;
50683;SDS011;36654;45.042;38.994;2023-10-31T11:50:13;18.23;;;8.32;;
50683;SDS011;36654;45.042;38.994;2023-10-31T11:52:39;21.00;;;11.32;;
50683;SDS011;36654;45.042;38.994;2023-10-31T11:55:05;18.85;;;8.02;;
50683;SDS011;36654;45.042;38.994;2023-10-31T11:57:35;15.07;;;8.35;;
50683;SDS011;36654;45.042;38.994;2023-10-31T12:00:01;13.60;;;7.78;;
50683;SDS011;36654;45.042;38.994;2023-10-31T12:02:29;15.55;;;7.40;;
50683;SDS011;36654;45.042;38.994;2023-10-31T12:05:10;14.57;;;7.63;;
50683;SDS011;36654;45.042;38.994;2023-10-31T12:07:41;16.40;;;6.78;;
50683;SDS011;36654;45.042;38.994;2023-10-31T12:10:08;12.10;;;6.03;;
50683;SDS011;36654;45.042;38.994;2023-10-31T12:12:35;11.02;;;5.97;;
50683;SDS011;36654;45.042;38.994;2023-10-31T12:15:07;12.85;;;6.05;;
50683;SDS011;36654;45.042;38.994;2023-10-31T12:17:34;9.48;;;5.10;;
50683;SDS011;36654;45.042;38.994;2023-10-31T12:20:06;9.48;;;4.60;;
50683;SDS011;36654;45.042;38.994;2023-10-31T12:22:32;9.10;;;4.97;;
50683;SDS011;36654;45.042;38.994;2023-10-31T12:25:02;7.40;;;4.63;;
50683;SDS011;36654;45.042;38.994;2023-10-31T12:30:17;11.95;;;4.50;;
50683;SDS011;36654;45.042;38.994;2023-10-31T12:32:44;12.18;;;4.35;;
50683;SDS011;36654;45.042;38.994;2023-10-31T12:35:13;11.65;;;4.72;;
50683;SDS011;36654;45.042;38.994;2023-10-31T12:37:46;9.98;;;4.60;;
50683;SDS011;36654;45.042;38.994;2023-10-31T12:40:20;11.90;;;5.35;;
50683;SDS011;36654;45.042;38.994;2023-10-31T12:42:47;11.93;;;4.63;;
50683;SDS011;36654;45.042;38.994;2023-10-31T12:45:14;17.30;;;5.32;;
50683;SDS011;36654;45.042;38.994;2023-10-31T12:47:42;9.10;;;4.57;;
50683;SDS011;36654;45.042;38.994;2023-10-31T12:50:14;14.05;;;6.05;;
50683;SDS011;36654;45.042;38.994;2023-10-31T12:55:16;16.08;;;6.30;;
50683;SDS011;36654;45.042;38.994;2023-10-31T12:57:48;11.20;;;5.82;;
50683;SDS011;36654;45.042;38.994;2023-10-31T13:00:15;13.25;;;6.70;;
50683;SDS011;36654;45.042;38.994;2023-10-31T13:02:43;14.93;;;6.38;;
50683;SDS011;36654;45.042;38.994;2023-10-31T13:05:13;14.98;;;7.00;;
50683;SDS011;36654;45.042;38.994;2023-10-31T13:07:47;18.23;;;7.35;;
50683;SDS011;36654;45.042;38.994;2023-10-31T13:10:15;15.85;;;7.88;;
50683;SDS011;36654;45.042;38.994;2023-10-31T13:12:48;15.43;;;7.53;;
50683;SDS011;36654;45.042;38.994;2023-10-31T13:15:15;13.68;;;6.90;;
50683;SDS011;36654;45.042;38.994;2023-10-31T13:17:41;11.40;;;6.40;;
50683;SDS011;36654;45.042;38.994;2023-10-31T13:20:10;13.07;;;6.75;;
50683;SDS011;36654;45.042;38.994;2023-10-31T13:22:38;16.55;;;7.03;;
50683;SDS011;36654;45.042;38.994;2023-10-31T13:25:05;13.90;;;6.63;;
50683;SDS011;36654;45.042;38.994;2023-10-31T13:27:33;17.08;;;6.82;;
50683;SDS011;36654;45.042;38.994;2023-10-31T13:30:09;17.15;;;6.80;;
50683;SDS011;36654;45.042;38.994;2023-10-31T13:32:41;15.23;;;6.35;;
50683;SDS011;36654;45.042;38.994;2023-10-31T13:35:07;14.02;;;6.20;;
50683;SDS011;36654;45.042;38.994;2023-10-31T13:37:34;15.65;;;6.75;;
50683;SDS011;36654;45.042;38.994;2023-10-31T13:40:01;13.43;;;6.05;;
50683;SDS011;36654;45.042;38.994;2023-10-31T13:42:27;14.90;;;6.43;;
50683;SDS011;36654;45.042;38.994;2023-10-31T13:44:53;15.80;;;6.60;;
50683;SDS011;36654;45.042;38.994;2023-10-31T13:47:19;14.55;;;6.45;;
50683;SDS011;36654;45.042;38.994;2023-10-31T13:49:44;18.70;;;6.88;;
50683;SDS011;36654;45.042;38.994;2023-10-31T13:52:10;14.18;;;6.40;;
50683;SDS011;36654;45.042;38.994;2023-10-31T13:54:36;18.15;;;6.45;;
50683;SDS011;36654;45.042;38.994;2023-10-31T13:57:02;16.95;;;6.40;;
50683;SDS011;36654;45.042;38.994;2023-10-31T13:59:28;16.17;;;6.72;;
50683;SDS011;36654;45.042;38.994;2023-10-31T14:01:56;17.33;;;6.45;;
50683;SDS011;36654;45.042;38.994;2023-10-31T14:04:22;15.15;;;6.88;;
50683;SDS011;36654;45.042;38.994;2023-10-31T14:06:48;17.20;;;6.85;;
50683;SDS011;36654;45.042;38.994;2023-10-31T14:09:14;16.35;;;6.20;;
50683;SDS011;36654;45.042;38.994;2023-10-31T14:11:40;18.30;;;6.75;;
50683;SDS011;36654;45.042;38.994;2023-10-31T14:14:07;20.20;;;7.07;;
50683;SDS011;36654;45.042;38.994;2023-10-31T14:16:36;16.48;;;6.95;;
50683;SDS011;36654;45.042;38.994;2023-10-31T14:19:03;20.40;;;7.68;;
50683;SDS011;36654;45.042;38.994;2023-10-31T14:21:29;22.25;;;8.10;;
50683;SDS011;36654;45.042;38.994;2023-10-31T14:23:55;16.88;;;6.85;;